createdAt,value
2023-10-21T00:03:03.771Z,31.60
2023-10-21T00:08:05.770Z,37.20
2023-10-21T00:13:07.501Z,34.97
2023-10-21T00:18:09.226Z,35.42
2023-10-21T00:23:10.984Z,34.95
2023-10-21T00:28:12.663Z,33.80
2023-10-21T00:33:15.390Z,36.08
2023-10-21T00:38:17.260Z,33.47
2023-10-21T00:43:38.563Z,34.33
2023-10-21T00:48:41.432Z,34.63
2023-10-21T00:53:44.031Z,38.55
2023-10-21T00:58:45.905Z,40.05
2023-10-21T01:03:48.351Z,38.65
2023-10-21T01:08:50.386Z,35.13
2023-10-21T01:13:52.987Z,33.50
2023-10-21T01:18:54.749Z,35.92
2023-10-21T01:23:56.468Z,37.20
2023-10-21T01:28:58.201Z,38.25
2023-10-21T01:34:00.040Z,36.10
2023-10-21T01:39:02.679Z,33.75
2023-10-21T01:44:04.519Z,31.77
2023-10-21T01:49:06.286Z,33.70
2023-10-21T01:54:08.042Z,34.15
2023-10-21T01:59:09.799Z,33.40
2023-10-21T02:04:11.594Z,30.73
2023-10-21T02:09:13.505Z,29.05
2023-10-21T02:14:15.809Z,26.13
2023-10-21T02:19:17.938Z,27.73
2023-10-21T02:24:19.735Z,31.15
2023-10-21T02:29:21.519Z,26.83
2023-10-21T02:34:24.104Z,30.15
2023-10-21T02:39:26.172Z,30.85
2023-10-21T02:44:29.691Z,27.85
2023-10-21T02:49:31.890Z,25.92
2023-10-21T02:54:34.441Z,27.15
2023-10-21T02:59:36.802Z,26.35
2023-10-21T03:04:38.568Z,26.83
2023-10-21T03:09:40.271Z,25.38
2023-10-21T03:14:42.017Z,24.58
2023-10-21T03:19:43.861Z,26.40
2023-10-21T03:24:45.620Z,26.38
2023-10-21T03:29:47.350Z,26.20
2023-10-21T03:34:49.044Z,23.98
2023-10-21T03:39:50.767Z,24.42
2023-10-21T03:44:52.992Z,25.25
2023-10-21T03:49:54.734Z,24.48
2023-10-21T03:54:56.562Z,23.40
2023-10-21T04:00:01.240Z,23.90
2023-10-21T04:05:03.134Z,22.42
2023-10-21T04:10:05.529Z,21.98
2023-10-21T04:15:11.568Z,22.33
2023-10-21T04:20:14.192Z,20.95
2023-10-21T04:25:16.637Z,20.38
2023-10-21T04:30:18.363Z,21.05
2023-10-21T04:35:20.644Z,20.27
2023-10-21T04:40:22.432Z,20.42
2023-10-21T04:45:24.401Z,18.50
2023-10-21T04:50:28.209Z,19.63
2023-10-21T04:55:30.172Z,19.17
2023-10-21T05:00:32.093Z,21.58
2023-10-21T05:05:36.024Z,20.50
2023-10-21T05:10:37.866Z,18.98
2023-10-21T05:15:39.858Z,22.40
2023-10-21T05:20:41.545Z,22.77
2023-10-21T05:25:43.872Z,21.50
2023-10-21T05:30:45.654Z,20.33
2023-10-21T05:35:47.370Z,20.65
2023-10-21T05:40:49.140Z,20.98
2023-10-21T05:45:50.871Z,21.35
2023-10-21T05:50:52.570Z,21.35
2023-10-21T05:55:56.854Z,20.15
2023-10-21T06:01:06.711Z,19.33
2023-10-21T06:06:09.167Z,21.48
2023-10-21T06:11:11.060Z,21.02
2023-10-21T06:16:12.832Z,25.33
2023-10-21T06:21:14.611Z,21.23
2023-10-21T06:26:16.326Z,23.13
2023-10-21T06:31:18.037Z,24.00
2023-10-21T06:36:20.302Z,24.73
2023-10-21T06:41:22.661Z,19.27
2023-10-21T06:46:25.070Z,17.55
2023-10-21T06:51:27.908Z,14.77
2023-10-21T06:56:29.735Z,14.60
2023-10-21T07:01:31.471Z,13.15
2023-10-21T07:06:33.345Z,10.68
2023-10-21T07:11:35.105Z,9.90
2023-10-21T07:16:36.883Z,7.43
2023-10-21T07:21:38.832Z,3.55
2023-10-21T07:26:40.549Z,3.80
2023-10-21T07:31:44.260Z,1.80
2023-10-21T07:36:45.972Z,1.98
2023-10-21T07:41:47.657Z,1.40
2023-10-21T07:46:49.401Z,1.10
2023-10-21T07:51:52.236Z,0.65
2023-10-21T07:56:55.245Z,1.17
2023-10-21T08:01:58.337Z,0.90
2023-10-21T08:07:01.844Z,0.80
2023-10-21T08:12:03.813Z,0.60
2023-10-21T08:17:05.637Z,0.50
2023-10-21T08:22:07.642Z,0.50
2023-10-21T08:27:09.479Z,0.68
2023-10-21T08:32:11.212Z,0.52
2023-10-21T08:37:12.908Z,0.45
2023-10-21T08:42:18.209Z,0.60
2023-10-21T08:47:20.983Z,0.60
2023-10-21T08:52:22.798Z,0.47
2023-10-21T08:57:25.383Z,0.50
2023-10-21T09:02:27.486Z,0.60
2023-10-21T09:07:45.568Z,0.68
2023-10-21T09:12:47.421Z,0.30
2023-10-21T09:17:53.585Z,0.60
2023-10-21T09:23:03.960Z,0.60
2023-10-21T09:28:06.003Z,0.30
2023-10-21T09:33:10.474Z,0.70
2023-10-21T09:38:19.632Z,0.65
2023-10-21T09:43:22.906Z,0.52
2023-10-21T09:48:26.846Z,0.38
2023-10-21T09:53:39.790Z,0.57
2023-10-21T09:58:42.242Z,1.95
2023-10-21T10:03:44.970Z,0.40
2023-10-21T10:08:48.973Z,0.70
2023-10-21T10:13:51.043Z,0.60
2023-10-21T10:18:57.093Z,0.80
2023-10-21T10:24:04.031Z,0.70
2023-10-21T10:29:26.806Z,0.60
2023-10-21T10:34:28.711Z,1.02
2023-10-21T10:39:40.157Z,1.20
2023-10-21T10:44:43.343Z,0.63
2023-10-21T10:49:55.542Z,0.30
2023-10-21T10:54:57.255Z,0.60
2023-10-21T10:59:59.103Z,0.45
2023-10-21T11:05:00.919Z,0.63
2023-10-21T11:10:03.753Z,0.30
2023-10-21T11:15:07.531Z,0.38
2023-10-21T11:20:10.017Z,0.85
2023-10-21T11:25:12.152Z,0.20
2023-10-21T11:30:13.987Z,0.30
2023-10-21T11:35:15.924Z,0.40
2023-10-21T11:40:18.389Z,0.40
2023-10-21T11:45:22.986Z,0.60
2023-10-21T11:50:25.900Z,0.30
2023-10-21T11:55:54.364Z,0.40
2023-10-21T12:01:16.240Z,0.50
2023-10-21T12:06:18.616Z,0.28
2023-10-21T12:11:29.450Z,0.43
2023-10-21T12:16:53.087Z,0.50
2023-10-21T12:22:08.578Z,0.50
2023-10-21T12:27:30.631Z,0.50
2023-10-21T12:32:32.429Z,0.55
2023-10-21T12:37:52.812Z,0.35
2023-10-21T12:43:12.824Z,0.68
2023-10-21T12:48:19.407Z,0.22
2023-10-21T12:53:21.726Z,0.40
2023-10-21T12:58:23.492Z,0.50
2023-10-21T13:03:25.315Z,0.45
2023-10-21T13:08:27.111Z,0.60
2023-10-21T13:13:29.363Z,0.35
2023-10-21T13:18:31.785Z,0.50
2023-10-21T13:23:35.962Z,0.40
2023-10-21T13:28:38.037Z,0.50
2023-10-21T13:33:39.788Z,0.60
2023-10-21T13:38:41.549Z,0.35
2023-10-21T13:43:43.612Z,0.50
2023-10-21T13:48:45.348Z,0.40
2023-10-21T13:53:47.096Z,0.40
2023-10-21T13:58:48.807Z,0.63
2023-10-21T14:03:50.647Z,0.60
2023-10-21T14:08:53.121Z,0.60
2023-10-21T14:13:55.205Z,5.32
2023-10-21T14:18:58.101Z,1.20
2023-10-21T14:23:59.790Z,0.73
2023-10-21T14:29:01.542Z,2.28
2023-10-21T14:34:03.295Z,0.90
2023-10-21T14:39:08.089Z,0.50
2023-10-21T14:44:10.226Z,1.00
2023-10-21T14:49:12.173Z,0.90
2023-10-21T14:54:14.458Z,0.85
2023-10-21T14:59:16.178Z,0.60
2023-10-21T15:04:18.084Z,0.82
2023-10-21T15:09:20.951Z,1.20
2023-10-21T15:14:34.258Z,0.63
2023-10-21T15:19:48.115Z,0.68
2023-10-21T15:24:51.609Z,1.02
2023-10-21T15:29:55.820Z,0.80
2023-10-21T15:34:58.192Z,0.65
2023-10-21T15:40:01.579Z,0.70
2023-10-21T15:45:03.677Z,0.95
2023-10-21T15:50:06.454Z,1.13
2023-10-21T15:55:09.070Z,1.05
2023-10-21T16:00:15.963Z,0.90
2023-10-21T16:05:18.056Z,0.90
2023-10-21T16:10:19.759Z,0.90
2023-10-21T16:15:21.533Z,0.88
2023-10-21T16:20:23.390Z,1.65
2023-10-21T16:25:25.104Z,5.75
2023-10-21T16:30:28.099Z,9.05
2023-10-21T16:35:29.871Z,6.88
2023-10-21T16:40:31.822Z,11.18
2023-10-21T16:45:33.560Z,10.75
2023-10-21T16:50:35.267Z,6.50
2023-10-21T16:55:37.145Z,4.20
2023-10-21T17:00:38.843Z,2.38
2023-10-21T17:05:40.582Z,7.25
2023-10-21T17:10:42.288Z,4.43
2023-10-21T17:15:44.930Z,4.90
2023-10-21T17:20:46.715Z,4.07
2023-10-21T17:25:48.668Z,3.75
2023-10-21T17:30:50.488Z,2.50
2023-10-21T17:35:52.283Z,2.67
2023-10-21T17:40:53.982Z,3.42
2023-10-21T17:45:55.808Z,4.93
2023-10-21T17:50:57.789Z,3.95
2023-10-21T17:56:00.309Z,5.05
2023-10-21T18:01:05.552Z,14.15
2023-10-21T18:06:07.475Z,15.25
2023-10-21T18:11:09.161Z,19.95
2023-10-21T18:16:11.011Z,16.65
2023-10-21T18:21:12.810Z,16.15
2023-10-21T18:26:14.560Z,17.13
2023-10-21T18:31:16.385Z,22.55
2023-10-21T18:36:18.351Z,18.00
2023-10-21T18:41:20.149Z,18.08
2023-10-21T18:46:21.949Z,18.98
2023-10-21T18:51:26.723Z,15.00
2023-10-21T18:56:28.664Z,18.90
2023-10-21T19:01:32.068Z,19.08
2023-10-21T19:06:37.412Z,12.73
2023-10-21T19:11:39.478Z,11.43
2023-10-21T19:16:41.205Z,6.07
2023-10-21T19:21:47.467Z,9.65
2023-10-21T19:26:49.349Z,10.00
2023-10-21T19:31:51.304Z,10.90
2023-10-21T19:36:53.157Z,14.90
2023-10-21T19:41:57.739Z,13.57
2023-10-21T19:47:04.589Z,10.82
2023-10-21T19:52:06.972Z,12.00
2023-10-21T19:57:09.028Z,12.23
2023-10-21T20:02:11.701Z,14.32
2023-10-21T20:07:13.423Z,12.93
2023-10-21T20:12:15.141Z,12.13
2023-10-21T20:17:16.836Z,12.73
2023-10-21T20:22:18.525Z,12.23
2023-10-21T20:27:20.677Z,11.98
2023-10-21T20:32:22.413Z,10.25
2023-10-21T20:37:27.101Z,10.05
2023-10-21T20:42:28.998Z,10.52
2023-10-21T20:47:30.943Z,10.48
2023-10-21T20:52:32.697Z,10.98
2023-10-21T20:57:34.443Z,10.40
2023-10-21T21:02:36.336Z,10.52
2023-10-21T21:07:50.401Z,11.73
2023-10-21T21:12:55.551Z,10.70
2023-10-21T21:17:57.492Z,10.85
2023-10-21T21:22:59.222Z,10.30
2023-10-21T21:28:00.956Z,10.32
2023-10-21T21:33:02.735Z,9.48
2023-10-21T21:38:05.542Z,8.60
2023-10-21T21:43:07.364Z,8.35
2023-10-21T21:48:09.517Z,11.05
2023-10-21T21:53:12.380Z,11.73
2023-10-21T21:58:14.310Z,12.45
2023-10-21T22:03:16.117Z,11.13
2023-10-21T22:08:17.880Z,11.75
2023-10-21T22:13:19.885Z,10.57
2023-10-21T22:18:22.626Z,12.23
2023-10-21T22:23:27.571Z,5.30
2023-10-21T22:28:29.331Z,8.98
2023-10-21T22:33:31.102Z,10.63
2023-10-21T22:38:33.009Z,5.47
2023-10-21T22:43:37.574Z,7.45
2023-10-21T22:48:39.383Z,3.92
2023-10-21T22:53:41.208Z,4.07
2023-10-21T22:58:43.479Z,4.00
2023-10-21T23:03:46.382Z,4.63
2023-10-21T23:08:49.677Z,3.90
2023-10-21T23:13:52.679Z,4.10
2023-10-21T23:18:54.814Z,4.35
2023-10-21T23:23:56.632Z,4.43
2023-10-21T23:28:58.353Z,4.53
2023-10-21T23:34:00.059Z,4.50
2023-10-21T23:39:01.865Z,5.38
2023-10-21T23:44:03.647Z,5.90
2023-10-21T23:49:05.455Z,4.18
2023-10-21T23:54:07.420Z,5.22
2023-10-21T23:59:09.120Z,3.60
